Terminal Aerodrome Forecast
Issued by NWS

Home | Current Version | Previous Version | Text Only | Print | Product List | Glossary On
Versions: 1 2 3 4 5 6 7 8 9 10 11 12 13 14 15
000
FTUS46 KPDT 061137
TAFPSC
TAF
KPSC 061137Z 0612/0712 34006KT P6SM SCT080 BKN200
     FM061700 35011KT P6SM SCT100
     FM062000 35015G22KT P6SM SCT090
     FM070400 34009KT P6SM FEW100=

USA.gov is the U.S. government's official web portal to all federal, state and local government web resources and services.